sensor_id;sensor_type;location;lat;lon;timestamp;pressure;altitude;pressure_sealevel;temperature;humidity
73103;BME280;61294;65.988;29.172;2023-08-06T00:00:19;98170.53;;;14.93;100.00
73103;BME280;61294;65.988;29.172;2023-08-06T00:02:45;98183.72;;;14.96;100.00
73103;BME280;61294;65.988;29.172;2023-08-06T00:05:11;98161.84;;;14.88;100.00
73103;BME280;61294;65.988;29.172;2023-08-06T00:07:37;98172.94;;;14.72;100.00
73103;BME280;61294;65.988;29.172;2023-08-06T00:10:03;98181.00;;;14.67;100.00
73103;BME280;61294;65.988;29.172;2023-08-06T00:12:29;98171.63;;;14.54;100.00
73103;BME280;61294;65.988;29.172;2023-08-06T00:14:55;98177.22;;;14.43;100.00
73103;BME280;61294;65.988;29.172;2023-08-06T00:17:21;98191.56;;;14.36;100.00
73103;BME280;61294;65.988;29.172;2023-08-06T00:19:47;98213.38;;;14.46;100.00
73103;BME280;61294;65.988;29.172;2023-08-06T00:22:13;98189.84;;;14.35;100.00
73103;BME280;61294;65.988;29.172;2023-08-06T00:24:39;98225.72;;;14.47;100.00
73103;BME280;61294;65.988;29.172;2023-08-06T00:27:05;98211.75;;;14.40;100.00
73103;BME280;61294;65.988;29.172;2023-08-06T00:29:31;98194.34;;;14.31;100.00
73103;BME280;61294;65.988;29.172;2023-08-06T00:31:56;98226.72;;;14.43;100.00
73103;BME280;61294;65.988;29.172;2023-08-06T00:34:22;98234.69;;;14.41;100.00
73103;BME280;61294;65.988;29.172;2023-08-06T00:36:48;98238.16;;;14.43;100.00
73103;BME280;61294;65.988;29.172;2023-08-06T00:39:14;98217.38;;;14.29;100.00
73103;BME280;61294;65.988;29.172;2023-08-06T00:41:39;98211.97;;;14.32;100.00
73103;BME280;61294;65.988;29.172;2023-08-06T00:44:05;98241.00;;;14.37;100.00
73103;BME280;61294;65.988;29.172;2023-08-06T00:46:32;98225.94;;;14.38;100.00
73103;BME280;61294;65.988;29.172;2023-08-06T00:48:59;98248.84;;;14.40;100.00
73103;BME280;61294;65.988;29.172;2023-08-06T00:51:25;98227.84;;;14.34;100.00
73103;BME280;61294;65.988;29.172;2023-08-06T00:53:52;98248.19;;;14.32;100.00
73103;BME280;61294;65.988;29.172;2023-08-06T00:56:19;98225.25;;;13.98;100.00
73103;BME280;61294;65.988;29.172;2023-08-06T00:58:45;98241.75;;;14.41;100.00
73103;BME280;61294;65.988;29.172;2023-08-06T01:01:12;98255.63;;;14.50;100.00
73103;BME280;61294;65.988;29.172;2023-08-06T01:03:38;98248.72;;;14.45;100.00
73103;BME280;61294;65.988;29.172;2023-08-06T01:06:04;98255.41;;;14.27;100.00
73103;BME280;61294;65.988;29.172;2023-08-06T01:08:49;98245.97;;;14.17;100.00
73103;BME280;61294;65.988;29.172;2023-08-06T01:11:27;98250.09;;;14.27;100.00
73103;BME280;61294;65.988;29.172;2023-08-06T01:14:04;98258.00;;;14.28;100.00
73103;BME280;61294;65.988;29.172;2023-08-06T01:16:33;98265.44;;;14.14;100.00
73103;BME280;61294;65.988;29.172;2023-08-06T01:18:59;98263.38;;;14.25;100.00
73103;BME280;61294;65.988;29.172;2023-08-06T01:21:25;98243.31;;;14.15;100.00
73103;BME280;61294;65.988;29.172;2023-08-06T01:23:51;98270.44;;;14.25;100.00
73103;BME280;61294;65.988;29.172;2023-08-06T01:26:53;98269.19;;;14.05;100.00
73103;BME280;61294;65.988;29.172;2023-08-06T01:29:54;98268.09;;;14.14;100.00
73103;BME280;61294;65.988;29.172;2023-08-06T01:32:24;98277.78;;;14.13;100.00
73103;BME280;61294;65.988;29.172;2023-08-06T01:34:50;98280.69;;;14.04;100.00
73103;BME280;61294;65.988;29.172;2023-08-06T01:37:17;98254.94;;;13.73;100.00
73103;BME280;61294;65.988;29.172;2023-08-06T01:39:43;98291.13;;;14.10;100.00
73103;BME280;61294;65.988;29.172;2023-08-06T01:42:09;98280.19;;;14.24;100.00
73103;BME280;61294;65.988;29.172;2023-08-06T01:44:35;98263.91;;;14.04;100.00
73103;BME280;61294;65.988;29.172;2023-08-06T01:47:01;98291.94;;;14.14;100.00
73103;BME280;61294;65.988;29.172;2023-08-06T01:49:26;98291.97;;;14.12;100.00
73103;BME280;61294;65.988;29.172;2023-08-06T01:51:52;98272.00;;;13.97;100.00
73103;BME280;61294;65.988;29.172;2023-08-06T01:54:18;98295.72;;;14.02;100.00
73103;BME280;61294;65.988;29.172;2023-08-06T01:56:46;98302.66;;;14.08;100.00
73103;BME280;61294;65.988;29.172;2023-08-06T01:59:12;98304.63;;;14.00;100.00
73103;BME280;61294;65.988;29.172;2023-08-06T02:01:38;98296.13;;;13.87;100.00
73103;BME280;61294;65.988;29.172;2023-08-06T02:04:04;98298.78;;;13.87;100.00
73103;BME280;61294;65.988;29.172;2023-08-06T02:06:30;98313.06;;;13.78;100.00
73103;BME280;61294;65.988;29.172;2023-08-06T02:08:56;98318.66;;;14.03;100.00
73103;BME280;61294;65.988;29.172;2023-08-06T02:11:21;98311.50;;;14.08;100.00
73103;BME280;61294;65.988;29.172;2023-08-06T02:13:47;98322.03;;;14.10;100.00
73103;BME280;61294;65.988;29.172;2023-08-06T02:16:13;98302.03;;;13.98;100.00
73103;BME280;61294;65.988;29.172;2023-08-06T02:18:39;98308.38;;;13.89;100.00
73103;BME280;61294;65.988;29.172;2023-08-06T02:21:05;98310.50;;;13.75;100.00
73103;BME280;61294;65.988;29.172;2023-08-06T02:23:31;98329.94;;;13.72;100.00
73103;BME280;61294;65.988;29.172;2023-08-06T02:26:01;98324.28;;;13.50;100.00
73103;BME280;61294;65.988;29.172;2023-08-06T02:28:27;98339.09;;;13.59;100.00
73103;BME280;61294;65.988;29.172;2023-08-06T02:30:53;98345.59;;;13.42;100.00
73103;BME280;61294;65.988;29.172;2023-08-06T02:33:19;98345.69;;;13.38;100.00
73103;BME280;61294;65.988;29.172;2023-08-06T02:35:44;98328.13;;;13.35;100.00
73103;BME280;61294;65.988;29.172;2023-08-06T02:38:10;98348.75;;;13.16;100.00
73103;BME280;61294;65.988;29.172;2023-08-06T02:40:36;98330.06;;;13.24;100.00
73103;BME280;61294;65.988;29.172;2023-08-06T02:43:02;98350.34;;;13.25;100.00
73103;BME280;61294;65.988;29.172;2023-08-06T02:45:29;98335.44;;;13.21;100.00
73103;BME280;61294;65.988;29.172;2023-08-06T02:47:55;98353.84;;;13.27;100.00
73103;BME280;61294;65.988;29.172;2023-08-06T02:50:20;98341.50;;;13.26;100.00
73103;BME280;61294;65.988;29.172;2023-08-06T02:52:46;98334.44;;;13.26;100.00
73103;BME280;61294;65.988;29.172;2023-08-06T02:55:12;98342.34;;;13.28;100.00
73103;BME280;61294;65.988;29.172;2023-08-06T02:57:38;98352.03;;;13.29;100.00
73103;BME280;61294;65.988;29.172;2023-08-06T03:00:04;98368.75;;;13.29;100.00
73103;BME280;61294;65.988;29.172;2023-08-06T03:02:30;98347.91;;;13.16;100.00
73103;BME280;61294;65.988;29.172;2023-08-06T03:04:56;98363.66;;;13.20;100.00
73103;BME280;61294;65.988;29.172;2023-08-06T03:07:22;98376.00;;;13.21;100.00
73103;BME280;61294;65.988;29.172;2023-08-06T03:09:48;98341.03;;;13.05;100.00
73103;BME280;61294;65.988;29.172;2023-08-06T03:12:14;98365.59;;;13.12;100.00
73103;BME280;61294;65.988;29.172;2023-08-06T03:14:40;98381.50;;;13.09;100.00
73103;BME280;61294;65.988;29.172;2023-08-06T03:17:06;98383.22;;;13.11;100.00
73103;BME280;61294;65.988;29.172;2023-08-06T03:19:31;98355.41;;;12.92;100.00
73103;BME280;61294;65.988;29.172;2023-08-06T03:21:57;98375.38;;;13.08;100.00
73103;BME280;61294;65.988;29.172;2023-08-06T03:24:23;98387.63;;;13.11;100.00
73103;BME280;61294;65.988;29.172;2023-08-06T03:26:49;98367.81;;;12.87;100.00
73103;BME280;61294;65.988;29.172;2023-08-06T03:29:15;98396.66;;;13.01;100.00
73103;BME280;61294;65.988;29.172;2023-08-06T03:31:41;98380.03;;;12.94;100.00
73103;BME280;61294;65.988;29.172;2023-08-06T03:34:07;98388.94;;;12.90;100.00
73103;BME280;61294;65.988;29.172;2023-08-06T03:36:32;98407.38;;;12.93;100.00
73103;BME280;61294;65.988;29.172;2023-08-06T03:38:58;98408.25;;;12.92;100.00
73103;BME280;61294;65.988;29.172;2023-08-06T03:41:24;98405.78;;;12.84;100.00
73103;BME280;61294;65.988;29.172;2023-08-06T03:43:50;98408.47;;;12.80;100.00
73103;BME280;61294;65.988;29.172;2023-08-06T03:46:16;98414.63;;;12.82;100.00
73103;BME280;61294;65.988;29.172;2023-08-06T03:48:41;98417.19;;;12.86;100.00
73103;BME280;61294;65.988;29.172;2023-08-06T03:51:07;98399.66;;;12.81;100.00
73103;BME280;61294;65.988;29.172;2023-08-06T03:53:33;98399.72;;;12.77;100.00
73103;BME280;61294;65.988;29.172;2023-08-06T03:55:59;98410.13;;;12.85;100.00
73103;BME280;61294;65.988;29.172;2023-08-06T03:58:25;98425.88;;;12.93;100.00
73103;BME280;61294;65.988;29.172;2023-08-06T04:01:01;98426.75;;;12.93;100.00
73103;BME280;61294;65.988;29.172;2023-08-06T04:03:28;98423.22;;;12.94;100.00
73103;BME280;61294;65.988;29.172;2023-08-06T04:05:54;98434.69;;;12.92;100.00
73103;BME280;61294;65.988;29.172;2023-08-06T04:08:20;98425.91;;;12.91;100.00
73103;BME280;61294;65.988;29.172;2023-08-06T04:10:50;98416.28;;;12.87;100.00
73103;BME280;61294;65.988;29.172;2023-08-06T04:13:16;98440.03;;;12.90;100.00
73103;BME280;61294;65.988;29.172;2023-08-06T04:15:42;98423.25;;;12.93;100.00
73103;BME280;61294;65.988;29.172;2023-08-06T04:18:08;98442.47;;;13.03;100.00
73103;BME280;61294;65.988;29.172;2023-08-06T04:20:34;98440.63;;;13.06;100.00
73103;BME280;61294;65.988;29.172;2023-08-06T04:23:05;98427.56;;;12.97;100.00
73103;BME280;61294;65.988;29.172;2023-08-06T04:25:32;98441.59;;;13.01;100.00
73103;BME280;61294;65.988;29.172;2023-08-06T04:27:57;98448.56;;;13.05;100.00
73103;BME280;61294;65.988;29.172;2023-08-06T04:30:23;98404.63;;;12.98;100.00
73103;BME280;61294;65.988;29.172;2023-08-06T04:32:49;98399.38;;;12.96;100.00
73103;BME280;61294;65.988;29.172;2023-08-06T04:35:16;98442.19;;;13.18;100.00
73103;BME280;61294;65.988;29.172;2023-08-06T04:37:42;98440.47;;;13.16;100.00
73103;BME280;61294;65.988;29.172;2023-08-06T04:40:08;98443.09;;;13.16;100.00
73103;BME280;61294;65.988;29.172;2023-08-06T04:42:34;98451.84;;;13.19;100.00
73103;BME280;61294;65.988;29.172;2023-08-06T04:45:01;98443.88;;;13.21;100.00
73103;BME280;61294;65.988;29.172;2023-08-06T04:47:27;98450.03;;;13.23;100.00
73103;BME280;61294;65.988;29.172;2023-08-06T04:49:54;98455.25;;;13.26;100.00
73103;BME280;61294;65.988;29.172;2023-08-06T04:52:19;98450.06;;;13.21;100.00
73103;BME280;61294;65.988;29.172;2023-08-06T04:54:45;98455.25;;;13.26;100.00
73103;BME280;61294;65.988;29.172;2023-08-06T04:57:11;98456.03;;;13.29;100.00
73103;BME280;61294;65.988;29.172;2023-08-06T04:59:37;98441.19;;;13.22;100.00
73103;BME280;61294;65.988;29.172;2023-08-06T05:02:03;98453.41;;;13.29;100.00
73103;BME280;61294;65.988;29.172;2023-08-06T05:04:29;98455.22;;;13.27;100.00
73103;BME280;61294;65.988;29.172;2023-08-06T05:06:54;98456.16;;;13.25;100.00
73103;BME280;61294;65.988;29.172;2023-08-06T05:09:20;98465.75;;;13.30;100.00
73103;BME280;61294;65.988;29.172;2023-08-06T05:11:47;98463.97;;;13.29;100.00
73103;BME280;61294;65.988;29.172;2023-08-06T05:14:13;98463.00;;;13.38;100.00
73103;BME280;61294;65.988;29.172;2023-08-06T05:16:39;98469.22;;;13.36;100.00
73103;BME280;61294;65.988;29.172;2023-08-06T05:19:05;98464.66;;;13.44;100.00
73103;BME280;61294;65.988;29.172;2023-08-06T05:21:30;98455.78;;;13.45;100.00
73103;BME280;61294;65.988;29.172;2023-08-06T05:23:56;98429.59;;;13.31;100.00
73103;BME280;61294;65.988;29.172;2023-08-06T05:26:22;98461.84;;;13.52;100.00
73103;BME280;61294;65.988;29.172;2023-08-06T05:28:48;98474.19;;;13.53;100.00
73103;BME280;61294;65.988;29.172;2023-08-06T05:31:14;98463.56;;;13.54;100.00
73103;BME280;61294;65.988;29.172;2023-08-06T05:33:40;98472.34;;;13.56;100.00
73103;BME280;61294;65.988;29.172;2023-08-06T05:36:06;98470.59;;;13.57;100.00
73103;BME280;61294;65.988;29.172;2023-08-06T05:38:31;98463.53;;;13.56;100.00
73103;BME280;61294;65.988;29.172;2023-08-06T05:40:57;98462.59;;;13.58;100.00
73103;BME280;61294;65.988;29.172;2023-08-06T05:43:23;98478.34;;;13.64;100.00
73103;BME280;61294;65.988;29.172;2023-08-06T05:45:49;98453.75;;;13.59;100.00
73103;BME280;61294;65.988;29.172;2023-08-06T05:48:16;98468.66;;;13.63;100.00
73103;BME280;61294;65.988;29.172;2023-08-06T05:50:41;98484.47;;;13.68;100.00
73103;BME280;61294;65.988;29.172;2023-08-06T05:53:07;98464.31;;;13.59;100.00
73103;BME280;61294;65.988;29.172;2023-08-06T05:55:34;98486.13;;;13.74;100.00
73103;BME280;61294;65.988;29.172;2023-08-06T05:58:01;98487.06;;;13.71;100.00
73103;BME280;61294;65.988;29.172;2023-08-06T06:00:26;98460.69;;;13.65;100.00
73103;BME280;61294;65.988;29.172;2023-08-06T06:02:52;98479.78;;;13.83;100.00
73103;BME280;61294;65.988;29.172;2023-08-06T06:05:18;98491.19;;;13.85;100.00
73103;BME280;61294;65.988;29.172;2023-08-06T06:07:44;98477.13;;;13.83;100.00
73103;BME280;61294;65.988;29.172;2023-08-06T06:10:10;98469.97;;;13.86;100.00
73103;BME280;61294;65.988;29.172;2023-08-06T06:12:37;98469.06;;;13.87;100.00
73103;BME280;61294;65.988;29.172;2023-08-06T06:15:04;98483.97;;;13.93;100.00
73103;BME280;61294;65.988;29.172;2023-08-06T06:17:29;98497.06;;;13.99;100.00
73103;BME280;61294;65.988;29.172;2023-08-06T06:19:55;98490.13;;;13.93;100.00
73103;BME280;61294;65.988;29.172;2023-08-06T06:22:21;98488.22;;;14.00;100.00
73103;BME280;61294;65.988;29.172;2023-08-06T06:24:47;98481.25;;;13.96;100.00
73103;BME280;61294;65.988;29.172;2023-08-06T06:27:13;98499.69;;;14.01;100.00
73103;BME280;61294;65.988;29.172;2023-08-06T06:29:39;98495.38;;;13.95;100.00
73103;BME280;61294;65.988;29.172;2023-08-06T06:32:05;98503.28;;;13.96;99.68
73103;BME280;61294;65.988;29.172;2023-08-06T06:34:31;98498.00;;;13.98;99.89
73103;BME280;61294;65.988;29.172;2023-08-06T06:36:56;98490.88;;;14.00;98.54
73103;BME280;61294;65.988;29.172;2023-08-06T06:39:22;98501.38;;;14.05;99.52
73103;BME280;61294;65.988;29.172;2023-08-06T06:41:48;98498.72;;;14.05;97.44
73103;BME280;61294;65.988;29.172;2023-08-06T06:44:14;98476.81;;;13.96;97.89
73103;BME280;61294;65.988;29.172;2023-08-06T06:46:40;98506.44;;;14.15;95.01
73103;BME280;61294;65.988;29.172;2023-08-06T06:49:06;98510.59;;;14.27;93.68
73103;BME280;61294;65.988;29.172;2023-08-06T06:51:32;98506.16;;;14.28;93.14
73103;BME280;61294;65.988;29.172;2023-08-06T06:53:58;98513.06;;;14.37;88.32
73103;BME280;61294;65.988;29.172;2023-08-06T06:56:24;98508.28;;;14.53;84.63
73103;BME280;61294;65.988;29.172;2023-08-06T06:58:50;98490.50;;;14.56;81.64
73103;BME280;61294;65.988;29.172;2023-08-06T07:01:16;98523.66;;;14.76;81.87
73103;BME280;61294;65.988;29.172;2023-08-06T07:03:42;98516.50;;;14.81;81.28
73103;BME280;61294;65.988;29.172;2023-08-06T07:06:07;98514.16;;;14.67;82.75
73103;BME280;61294;65.988;29.172;2023-08-06T07:08:33;98507.19;;;14.63;82.98
73103;BME280;61294;65.988;29.172;2023-08-06T07:11:04;98487.88;;;14.55;80.68
73103;BME280;61294;65.988;29.172;2023-08-06T07:13:30;98523.09;;;14.61;81.26
73103;BME280;61294;65.988;29.172;2023-08-06T07:15:56;98531.16;;;14.57;82.00
73103;BME280;61294;65.988;29.172;2023-08-06T07:18:22;98522.28;;;14.59;81.78
73103;BME280;61294;65.988;29.172;2023-08-06T07:20:52;98513.53;;;14.54;81.94
73103;BME280;61294;65.988;29.172;2023-08-06T07:23:24;98518.72;;;14.59;80.26
73103;BME280;61294;65.988;29.172;2023-08-06T07:25:50;98524.88;;;14.62;81.70
73103;BME280;61294;65.988;29.172;2023-08-06T07:28:17;98522.22;;;14.61;81.61
73103;BME280;61294;65.988;29.172;2023-08-06T07:30:43;98536.25;;;14.66;81.10
73103;BME280;61294;65.988;29.172;2023-08-06T07:33:10;98533.59;;;14.66;81.28
73103;BME280;61294;65.988;29.172;2023-08-06T07:35:36;98529.94;;;14.72;79.37
73103;BME280;61294;65.988;29.172;2023-08-06T07:38:02;98542.88;;;14.86;79.78
73103;BME280;61294;65.988;29.172;2023-08-06T07:40:28;98527.00;;;14.84;80.89
73103;BME280;61294;65.988;29.172;2023-08-06T07:42:54;98545.47;;;14.89;79.39
73103;BME280;61294;65.988;29.172;2023-08-06T07:45:20;98533.84;;;14.94;79.98
73103;BME280;61294;65.988;29.172;2023-08-06T07:47:46;98526.81;;;14.92;81.00
73103;BME280;61294;65.988;29.172;2023-08-06T07:50:12;98545.81;;;15.11;78.72
73103;BME280;61294;65.988;29.172;2023-08-06T07:52:38;98542.72;;;15.29;77.03
73103;BME280;61294;65.988;29.172;2023-08-06T07:55:04;98537.19;;;15.37;75.38
73103;BME280;61294;65.988;29.172;2023-08-06T07:57:34;98525.63;;;15.40;75.59
73103;BME280;61294;65.988;29.172;2023-08-06T08:00:00;98541.19;;;15.53;74.10
73103;BME280;61294;65.988;29.172;2023-08-06T08:02:27;98544.50;;;15.62;76.25
73103;BME280;61294;65.988;29.172;2023-08-06T08:04:52;98521.50;;;15.62;74.68
73103;BME280;61294;65.988;29.172;2023-08-06T08:07:18;98534.25;;;15.82;74.92
73103;BME280;61294;65.988;29.172;2023-08-06T08:09:45;98554.38;;;15.91;72.99
73103;BME280;61294;65.988;29.172;2023-08-06T08:12:10;98545.06;;;16.08;70.20
73103;BME280;61294;65.988;29.172;2023-08-06T08:14:36;98552.53;;;15.93;72.18
73103;BME280;61294;65.988;29.172;2023-08-06T08:17:05;98553.41;;;15.94;73.05
73103;BME280;61294;65.988;29.172;2023-08-06T08:19:32;98558.03;;;16.18;70.04
73103;BME280;61294;65.988;29.172;2023-08-06T08:21:58;98553.13;;;16.34;69.59
73103;BME280;61294;65.988;29.172;2023-08-06T08:24:24;98562.09;;;16.62;67.19
73103;BME280;61294;65.988;29.172;2023-08-06T08:26:51;98557.91;;;16.81;64.25
73103;BME280;61294;65.988;29.172;2023-08-06T08:29:17;98566.66;;;17.15;64.82
73103;BME280;61294;65.988;29.172;2023-08-06T08:31:43;98570.28;;;17.39;63.24
73103;BME280;61294;65.988;29.172;2023-08-06T08:34:09;98573.59;;;17.46;65.15
73103;BME280;61294;65.988;29.172;2023-08-06T08:36:35;98567.22;;;17.76;63.24
73103;BME280;61294;65.988;29.172;2023-08-06T08:39:01;98568.19;;;17.74;61.68
73103;BME280;61294;65.988;29.172;2023-08-06T08:41:29;98580.66;;;17.20;62.91
73103;BME280;61294;65.988;29.172;2023-08-06T08:43:58;98580.19;;;17.07;62.77
73103;BME280;61294;65.988;29.172;2023-08-06T08:46:26;98585.31;;;17.13;61.62
73103;BME280;61294;65.988;29.172;2023-08-06T08:48:54;98575.38;;;17.45;63.44
73103;BME280;61294;65.988;29.172;2023-08-06T08:51:21;98571.53;;;18.29;64.19
73103;BME280;61294;65.988;29.172;2023-08-06T08:53:47;98566.06;;;18.34;61.15
73103;BME280;61294;65.988;29.172;2023-08-06T08:56:15;98574.56;;;18.91;60.15
73103;BME280;61294;65.988;29.172;2023-08-06T08:58:41;98564.81;;;18.90;53.92
73103;BME280;61294;65.988;29.172;2023-08-06T09:01:09;98554.44;;;18.81;51.66
73103;BME280;61294;65.988;29.172;2023-08-06T09:03:36;98567.66;;;19.08;56.09
73103;BME280;61294;65.988;29.172;2023-08-06T09:06:02;98585.53;;;18.60;55.24
73103;BME280;61294;65.988;29.172;2023-08-06T09:08:35;98574.06;;;18.34;57.39
73103;BME280;61294;65.988;29.172;2023-08-06T09:11:03;98556.38;;;18.32;55.74
73103;BME280;61294;65.988;29.172;2023-08-06T09:13:30;98568.06;;;18.51;58.24
73103;BME280;61294;65.988;29.172;2023-08-06T09:15:55;98575.41;;;18.21;57.21
73103;BME280;61294;65.988;29.172;2023-08-06T09:18:29;98579.78;;;17.98;58.33
73103;BME280;61294;65.988;29.172;2023-08-06T09:20:56;98581.19;;;17.83;60.72
73103;BME280;61294;65.988;29.172;2023-08-06T09:23:30;98579.06;;;17.68;58.83
73103;BME280;61294;65.988;29.172;2023-08-06T09:25:57;98552.81;;;17.82;59.86
73103;BME280;61294;65.988;29.172;2023-08-06T09:28:23;98558.25;;;17.79;61.87
73103;BME280;61294;65.988;29.172;2023-08-06T09:30:50;98567.72;;;18.60;62.22
73103;BME280;61294;65.988;29.172;2023-08-06T09:33:22;98573.91;;;20.13;57.77
73103;BME280;61294;65.988;29.172;2023-08-06T09:35:48;98568.63;;;21.80;56.84
73103;BME280;61294;65.988;29.172;2023-08-06T09:38:14;98564.66;;;24.83;47.31
73103;BME280;61294;65.988;29.172;2023-08-06T09:40:40;98560.13;;;32.42;32.45
73103;BME280;61294;65.988;29.172;2023-08-06T09:43:06;98560.00;;;35.13;27.85
73103;BME280;61294;65.988;29.172;2023-08-06T09:45:34;98552.97;;;38.15;26.83
73103;BME280;61294;65.988;29.172;2023-08-06T09:48:03;98553.06;;;40.42;21.85
73103;BME280;61294;65.988;29.172;2023-08-06T09:50:34;98554.56;;;38.93;21.50
73103;BME280;61294;65.988;29.172;2023-08-06T09:53:06;98548.97;;;38.71;23.24
73103;BME280;61294;65.988;29.172;2023-08-06T09:55:33;98566.19;;;36.71;25.64
73103;BME280;61294;65.988;29.172;2023-08-06T09:58:00;98573.09;;;39.57;20.75
73103;BME280;61294;65.988;29.172;2023-08-06T10:00:26;98571.09;;;40.66;20.02
73103;BME280;61294;65.988;29.172;2023-08-06T10:02:53;98576.69;;;42.23;16.99
73103;BME280;61294;65.988;29.172;2023-08-06T10:05:25;98570.94;;;32.34;24.60
73103;BME280;61294;65.988;29.172;2023-08-06T10:07:51;98563.66;;;28.15;29.57
73103;BME280;61294;65.988;29.172;2023-08-06T10:10:18;98565.34;;;26.08;33.77
73103;BME280;61294;65.988;29.172;2023-08-06T10:12:52;98557.38;;;28.03;32.69
73103;BME280;61294;65.988;29.172;2023-08-06T10:15:23;98564.72;;;36.52;24.13
73103;BME280;61294;65.988;29.172;2023-08-06T10:17:54;98566.28;;;32.54;27.32
73103;BME280;61294;65.988;29.172;2023-08-06T10:20:21;98552.78;;;40.30;21.01
73103;BME280;61294;65.988;29.172;2023-08-06T10:23:05;98554.34;;;35.98;24.00
73103;BME280;61294;65.988;29.172;2023-08-06T10:25:35;98552.78;;;37.79;22.87
73103;BME280;61294;65.988;29.172;2023-08-06T10:28:09;98552.09;;;32.50;27.07
73103;BME280;61294;65.988;29.172;2023-08-06T10:30:46;98554.34;;;28.42;32.03
73103;BME280;61294;65.988;29.172;2023-08-06T10:33:12;98570.38;;;26.64;34.89
73103;BME280;61294;65.988;29.172;2023-08-06T10:35:46;98573.03;;;25.34;36.33
73103;BME280;61294;65.988;29.172;2023-08-06T10:38:18;98580.41;;;24.61;38.34
73103;BME280;61294;65.988;29.172;2023-08-06T10:41:02;98577.09;;;24.42;39.44
73103;BME280;61294;65.988;29.172;2023-08-06T10:43:29;98576.03;;;26.35;37.44
73103;BME280;61294;65.988;29.172;2023-08-06T10:45:56;98567.91;;;25.57;38.55
73103;BME280;61294;65.988;29.172;2023-08-06T10:48:36;98579.78;;;25.12;38.79
73103;BME280;61294;65.988;29.172;2023-08-06T10:51:03;98579.50;;;24.75;41.60
73103;BME280;61294;65.988;29.172;2023-08-06T10:53:30;98581.41;;;24.88;41.89
73103;BME280;61294;65.988;29.172;2023-08-06T10:55:55;98577.09;;;30.78;32.16
73103;BME280;61294;65.988;29.172;2023-08-06T10:58:21;98574.63;;;29.59;34.08
73103;BME280;61294;65.988;29.172;2023-08-06T11:00:47;98580.00;;;34.18;28.18
73103;BME280;61294;65.988;29.172;2023-08-06T11:03:14;98566.69;;;38.83;20.98
73103;BME280;61294;65.988;29.172;2023-08-06T11:05:40;98573.22;;;40.64;21.26
73103;BME280;61294;65.988;29.172;2023-08-06T11:08:06;98566.44;;;42.70;18.80
73103;BME280;61294;65.988;29.172;2023-08-06T11:10:35;98579.78;;;42.93;18.01
73103;BME280;61294;65.988;29.172;2023-08-06T11:13:01;98577.47;;;41.01;19.45
73103;BME280;61294;65.988;29.172;2023-08-06T11:15:28;98568.16;;;39.67;20.47
73103;BME280;61294;65.988;29.172;2023-08-06T11:17:55;98574.50;;;40.40;20.33
73103;BME280;61294;65.988;29.172;2023-08-06T11:20:21;98570.06;;;44.25;17.90
73103;BME280;61294;65.988;29.172;2023-08-06T11:22:50;98580.84;;;44.59;16.11
73103;BME280;61294;65.988;29.172;2023-08-06T11:25:16;98569.00;;;42.45;18.08
73103;BME280;61294;65.988;29.172;2023-08-06T11:27:42;98582.34;;;44.80;16.92
73103;BME280;61294;65.988;29.172;2023-08-06T11:30:10;98586.53;;;38.64;20.19
73103;BME280;61294;65.988;29.172;2023-08-06T11:32:47;98583.59;;;35.73;23.41
73103;BME280;61294;65.988;29.172;2023-08-06T11:35:15;98595.16;;;32.84;26.59
73103;BME280;61294;65.988;29.172;2023-08-06T11:37:44;98585.63;;;29.90;27.33
73103;BME280;61294;65.988;29.172;2023-08-06T11:40:11;98581.91;;;33.63;26.60
73103;BME280;61294;65.988;29.172;2023-08-06T11:42:37;98593.09;;;30.71;25.45
73103;BME280;61294;65.988;29.172;2023-08-06T11:45:04;98611.91;;;29.57;30.51
73103;BME280;61294;65.988;29.172;2023-08-06T11:47:30;98594.13;;;28.75;32.29
73103;BME280;61294;65.988;29.172;2023-08-06T11:49:56;98609.59;;;27.93;29.98
73103;BME280;61294;65.988;29.172;2023-08-06T11:52:23;98604.81;;;27.61;32.66
73103;BME280;61294;65.988;29.172;2023-08-06T11:55:03;98592.75;;;33.73;27.32
73103;BME280;61294;65.988;29.172;2023-08-06T11:57:30;98605.72;;;38.72;20.89
73103;BME280;61294;65.988;29.172;2023-08-06T12:00:27;98602.78;;;36.55;23.18
73103;BME280;61294;65.988;29.172;2023-08-06T12:02:54;98605.88;;;33.69;23.81
73103;BME280;61294;65.988;29.172;2023-08-06T12:05:29;98596.56;;;30.73;28.72
73103;BME280;61294;65.988;29.172;2023-08-06T12:07:57;98613.06;;;29.76;30.50
73103;BME280;61294;65.988;29.172;2023-08-06T12:10:28;98607.19;;;33.47;25.36
73103;BME280;61294;65.988;29.172;2023-08-06T12:12:55;98597.16;;;39.85;21.86
73103;BME280;61294;65.988;29.172;2023-08-06T12:15:21;98600.59;;;39.50;21.03
73103;BME280;61294;65.988;29.172;2023-08-06T12:17:47;98593.03;;;34.24;25.14
73103;BME280;61294;65.988;29.172;2023-08-06T12:20:13;98596.19;;;33.11;25.68
73103;BME280;61294;65.988;29.172;2023-08-06T12:22:39;98603.16;;;34.05;25.97
73103;BME280;61294;65.988;29.172;2023-08-06T12:25:07;98595.56;;;30.43;29.27
73103;BME280;61294;65.988;29.172;2023-08-06T12:27:38;98596.00;;;28.75;28.55
73103;BME280;61294;65.988;29.172;2023-08-06T12:30:05;98595.88;;;28.65;29.10
73103;BME280;61294;65.988;29.172;2023-08-06T12:32:31;98592.41;;;31.10;27.11
73103;BME280;61294;65.988;29.172;2023-08-06T12:34:57;98600.84;;;35.49;23.67
73103;BME280;61294;65.988;29.172;2023-08-06T12:37:24;98600.69;;;40.79;19.16
73103;BME280;61294;65.988;29.172;2023-08-06T12:39:50;98598.00;;;42.22;19.29
73103;BME280;61294;65.988;29.172;2023-08-06T12:42:16;98589.00;;;43.33;18.74
73103;BME280;61294;65.988;29.172;2023-08-06T12:44:42;98600.88;;;41.61;19.65